Time;durP1;ratioP1;P1;durP2;ratioP2;P2;SDS_P1;SDS_P2;PMS_P1;PMS_P2;Temp;Humidity;BMP_temperature;BMP_pressure;BME280_temperature;BME280_humidity;BME280_pressure;Samples;Min_cycle;Max_cycle;Signal;HPM_P1;HPM_P2
2021/04/01 00:01:17;;;;;;;39.78;19.13;;;;;;;12.03;64.79;100610.16;5014216;28;20060;-71
2021/04/01 00:03:46;;;;;;;33.85;19.50;;;;;;;12.01;64.23;100593.31;5014056;28;20065;-70
2021/04/01 00:06:15;;;;;;;32.08;18.90;;;;;;;12.00;64.20;100602.28;5014818;28;20050;-71
2021/04/01 00:08:42;;;;;;;39.97;20.90;;;;;;;12.05;63.58;100596.69;5014852;28;20050;-73
2021/04/01 00:11:11;;;;;;;39.25;20.67;;;;;;;11.98;64.04;100596.16;5014664;28;20053;-71
2021/04/01 00:13:38;;;;;;;35.28;19.85;;;;;;;11.88;64.29;100584.28;5014206;28;20049;-72
2021/04/01 00:16:04;;;;;;;37.10;21.02;;;;;;;11.93;64.17;100592.91;5014587;28;20428;-72
2021/04/01 00:18:34;;;;;;;38.03;22.30;;;;;;;11.87;64.58;100585.25;5018372;28;20053;-71
2021/04/01 00:21:02;;;;;;;42.40;22.00;;;;;;;11.84;64.15;100586.28;5018669;28;20061;-72
2021/04/01 00:23:28;;;;;;;42.85;20.70;;;;;;;11.88;64.03;100589.66;5018756;28;20049;-72
2021/04/01 00:25:54;;;;;;;34.60;20.33;;;;;;;11.85;64.40;100596.03;5018395;28;20046;-72
2021/04/01 00:28:20;;;;;;;33.67;20.23;;;;;;;11.79;63.77;100583.03;5001029;28;20050;-72
2021/04/01 00:30:47;;;;;;;39.47;19.45;;;;;;;11.85;63.92;100589.81;5017202;28;20068;-72
2021/04/01 00:33:13;;;;;;;40.30;20.55;;;;;;;11.79;63.93;100588.38;5017050;28;20398;-72
2021/04/01 00:35:40;;;;;;;41.25;21.20;;;;;;;11.87;63.68;100594.13;5018746;28;20088;-72
2021/04/01 00:38:06;;;;;;;35.47;19.48;;;;;;;11.78;64.17;100595.53;5001475;28;20046;-73
2021/04/01 00:40:33;;;;;;;38.95;20.92;;;;;;;11.81;64.12;100606.06;5018320;28;20049;-70
2021/04/01 00:42:59;;;;;;;36.47;21.23;;;;;;;11.78;63.83;100600.88;5018005;28;20054;-72
2021/04/01 00:45:25;;;;;;;39.17;19.83;;;;;;;11.74;63.82;100599.34;5017919;28;20428;-71
2021/04/01 00:47:53;;;;;;;37.90;20.90;;;;;;;11.71;64.05;100586.13;5017915;28;20064;-71
2021/04/01 00:50:27;;;;;;;43.40;22.73;;;;;;;11.73;64.35;100597.63;5018044;28;20061;-73
2021/04/01 00:52:53;;;;;;;41.17;22.48;;;;;;;11.77;63.90;100590.28;5033425;28;20060;-71
2021/04/01 00:55:19;;;;;;;41.88;22.23;;;;;;;11.75;64.32;100586.81;5016874;28;20396;-71
2021/04/01 00:57:51;;;;;;;44.97;22.23;;;;;;;11.73;63.94;100581.59;5017727;28;20129;-72
2021/04/01 01:00:22;;;;;;;37.58;21.13;;;;;;;11.87;63.13;100577.22;5013957;28;20058;-72
2021/04/01 01:02:48;;;;;;;;;;;;;;;11.79;63.23;100581.22;4999789;28;20148;-71
2021/04/01 01:05:15;;;;;;;38.47;20.25;;;;;;;11.79;63.53;100577.69;4999556;28;19984;-71
2021/04/01 01:07:42;;;;;;;41.83;19.67;;;;;;;11.69;64.25;100574.69;5000363;28;20050;-71
2021/04/01 01:10:11;;;;;;;34.85;19.75;;;;;;;11.67;65.08;100574.78;5001083;28;20047;-72
2021/04/01 01:12:37;;;;;;;38.75;20.70;;;;;;;11.70;65.04;100573.72;5000330;28;20062;-71
2021/04/01 01:15:05;;;;;;;38.28;20.45;;;;;;;11.70;65.21;100570.22;5000022;28;20057;-71
2021/04/01 01:17:31;;;;;;;33.42;18.63;;;;;;;11.74;64.71;100580.63;4998935;28;20101;-71
2021/04/01 01:19:58;;;;;;;35.20;19.08;;;;;;;11.79;64.42;100570.53;4997513;28;20076;-71
2021/04/01 01:22:24;;;;;;;36.20;18.65;;;;;;;11.79;64.98;100570.53;4998093;28;20065;-72
2021/04/01 01:24:51;;;;;;;36.28;18.35;;;;;;;11.77;65.60;100572.41;4996835;28;20050;-72
2021/04/01 01:27:19;;;;;;;35.83;19.77;;;;;;;11.66;66.10;100575.72;4995840;28;20058;-72
2021/04/01 01:29:47;;;;;;;36.33;17.00;;;;;;;11.70;66.05;100580.91;4997505;28;20061;-72
2021/04/01 01:32:16;;;;;;;33.47;18.05;;;;;;;11.67;66.29;100571.25;4997417;28;20050;-71
2021/04/01 01:34:43;;;;;;;35.42;17.02;;;;;;;11.68;65.66;100579.16;4997615;28;20132;-71
2021/04/01 01:37:10;;;;;;;35.35;18.33;;;;;;;11.67;66.22;100577.44;4997469;28;20424;-72
2021/04/01 01:39:36;;;;;;;33.53;19.67;;;;;;;11.71;65.65;100572.78;4997643;28;20116;-71
2021/04/01 01:42:04;;;;;;;38.88;19.80;;;;;;;11.71;65.74;100578.13;4997341;28;20352;-72
2021/04/01 01:44:30;;;;;;;33.80;19.10;;;;;;;11.71;65.50;100580.78;4997189;28;20069;-71
2021/04/01 01:46:58;;;;;;;37.53;19.23;;;;;;;11.67;65.91;100584.63;4997186;28;20386;-71
2021/04/01 01:49:24;;;;;;;38.08;20.88;;;;;;;11.63;66.21;100575.03;4997414;28;20054;-71
2021/04/01 01:51:51;;;;;;;40.97;19.77;;;;;;;11.60;66.42;100581.44;4997449;28;20047;-71
2021/04/01 01:54:18;;;;;;;41.50;20.45;;;;;;;11.62;66.86;100578.69;5012316;28;20054;-71
2021/04/01 01:56:44;;;;;;;34.53;19.50;;;;;;;11.53;66.51;100569.38;4996986;28;20486;-71
2021/04/01 01:59:10;;;;;;;36.10;18.73;;;;;;;11.56;66.85;100577.22;4996954;28;20054;-71
2021/04/01 02:01:36;;;;;;;40.03;19.52;;;;;;;11.51;66.96;100576.63;4997221;28;20056;-71
2021/04/01 02:04:04;;;;;;;36.45;19.70;;;;;;;11.53;67.46;100572.91;4997281;28;20376;-70
2021/04/01 02:06:31;;;;;;;35.80;19.23;;;;;;;11.47;68.11;100569.72;4997029;28;20371;-71
2021/04/01 02:08:59;;;;;;;37.03;18.77;;;;;;;11.47;68.27;100567.94;4996818;28;20053;-72
2021/04/01 02:11:27;;;;;;;36.92;18.58;;;;;;;11.40;68.53;100579.94;4996935;28;20058;-72
2021/04/01 02:13:54;;;;;;;36.33;19.05;;;;;;;11.44;68.33;100565.41;4996704;28;20508;-71
2021/04/01 02:16:20;;;;;;;35.90;18.92;;;;;;;11.40;68.53;100556.72;4996950;28;20050;-72
2021/04/01 02:18:47;;;;;;;37.47;18.80;;;;;;;11.41;68.95;100563.81;4995753;28;20132;-72
2021/04/01 02:21:15;;;;;;;31.30;18.08;;;;;;;11.35;68.86;100556.16;4996574;28;20057;-72
2021/04/01 02:23:41;;;;;;;30.08;16.40;;;;;;;11.38;68.75;100566.66;4995527;28;20431;-71
2021/04/01 02:26:08;;;;;;;26.67;15.82;;;;;;;11.31;69.08;100557.28;4996935;28;20057;-72
2021/04/01 02:28:35;;;;;;;29.15;16.60;;;;;;;11.33;69.15;100563.38;4996468;28;20057;-71
2021/04/01 02:31:04;;;;;;;26.85;16.73;;;;;;;11.28;69.38;100541.44;4995637;28;20054;-71
2021/04/01 02:33:33;;;;;;;33.30;16.60;;;;;;;11.26;69.36;100549.53;4996559;28;20061;-71
2021/04/01 02:36:00;;;;;;;32.05;16.27;;;;;;;11.26;69.32;100551.31;4996445;28;20055;-71
2021/04/01 02:38:27;;;;;;;34.95;17.90;;;;;;;11.29;68.90;100551.16;4996113;28;20062;-72
2021/04/01 02:40:55;;;;;;;31.70;18.00;;;;;;;11.24;68.66;100538.03;4996188;28;20454;-72
2021/04/01 02:43:43;;;;;;;35.05;19.30;;;;;;;11.35;67.99;100544.59;4995778;28;20436;-72
2021/04/01 02:46:09;;;;;;;36.13;19.92;;;;;;;11.43;67.67;100541.47;4996525;28;20058;-72
2021/04/01 02:48:35;;;;;;;33.22;18.13;;;;;;;11.53;66.75;100548.00;5011752;28;20050;-71
2021/04/01 02:51:03;;;;;;;32.25;18.60;;;;;;;11.56;66.25;100547.81;4996266;28;20451;-72
2021/04/01 02:53:29;;;;;;;31.15;17.83;;;;;;;11.60;66.42;100548.50;4995965;28;20410;-71
2021/04/01 02:55:56;;;;;;;32.28;17.77;;;;;;;11.57;66.83;100544.19;4995226;28;20057;-72
2021/04/01 02:58:22;;;;;;;34.28;18.17;;;;;;;11.51;67.39;100550.75;4996099;28;20073;-71
2021/04/01 03:00:51;;;;;;;36.47;17.02;;;;;;;11.54;67.49;100555.06;5011025;28;20050;-71
2021/04/01 03:03:21;;;;;;;31.27;16.52;;;;;;;11.51;67.57;100545.41;5015932;28;20050;-71
2021/04/01 03:05:47;;;;;;;33.23;18.47;;;;;;;11.42;67.67;100540.59;5017111;28;20058;-71
2021/04/01 03:08:16;;;;;;;34.33;17.45;;;;;;;11.35;68.03;100531.22;5016651;28;20050;-72
2021/04/01 03:10:42;;;;;;;28.77;17.08;;;;;;;11.31;68.45;100540.34;5031270;28;20111;-72
2021/04/01 03:13:09;;;;;;;32.72;17.83;;;;;;;11.32;68.61;100542.09;5031159;28;20049;-73
2021/04/01 03:15:43;;;;;;;29.95;16.75;;;;;;;11.27;68.67;100537.00;5016616;28;20073;-73
2021/04/01 03:18:09;;;;;;;31.95;18.15;;;;;;;11.31;68.51;100535.88;5014476;28;20072;-72
2021/04/01 03:20:35;;;;;;;36.97;18.38;;;;;;;11.30;69.10;100536.84;5015489;28;20149;-72
2021/04/01 03:23:02;;;;;;;31.33;17.63;;;;;;;11.23;69.41;100535.47;4998026;28;20054;-71
2021/04/01 03:25:28;;;;;;;31.60;18.00;;;;;;;11.42;68.42;100535.25;5015537;28;20054;-71
2021/04/01 03:27:56;;;;;;;32.70;17.58;;;;;;;11.33;68.34;100527.78;5015861;28;20410;-72
2021/04/01 03:30:22;;;;;;;33.20;17.92;;;;;;;11.30;68.83;100528.81;5014202;28;20058;-72
2021/04/01 03:32:48;;;;;;;37.10;17.70;;;;;;;11.31;68.96;100535.88;5015390;28;20053;-71
2021/04/01 03:35:18;;;;;;;32.50;18.33;;;;;;;11.33;69.32;100535.81;5015263;28;20388;-71
2021/04/01 03:37:46;;;;;;;33.40;16.73;;;;;;;11.29;69.14;100535.13;5015290;28;20046;-71
2021/04/01 03:40:13;;;;;;;33.20;17.85;;;;;;;11.28;68.70;100536.94;5015082;28;20489;-71
2021/04/01 03:42:39;;;;;;;33.15;18.42;;;;;;;11.28;69.12;100539.59;5014189;28;20140;-71
2021/04/01 03:45:09;;;;;;;33.47;18.92;;;;;;;11.31;69.14;100537.69;5015387;28;20104;-71
2021/04/01 03:47:37;;;;;;;37.55;18.65;;;;;;;11.30;69.21;100544.88;5015297;28;20057;-71
2021/04/01 03:50:08;;;;;;;36.95;18.13;;;;;;;11.27;69.00;100543.22;5015097;28;20431;-70
2021/04/01 03:52:34;;;;;;;36.33;18.58;;;;;;;11.31;69.00;100548.38;5019017;28;20112;-71
2021/04/01 03:58:00;;;;;;;30.65;17.40;;;;;;;11.30;68.85;100554.69;5010813;28;20050;-70
2021/04/01 04:00:33;;;;;;;33.30;17.33;;;;;;;11.25;69.11;100552.28;5018646;28;20398;-72
2021/04/01 04:11:16;;;;;;;35.38;18.58;;;;;;;11.18;69.03;100549.13;5019035;28;20050;-71
2021/04/01 04:14:20;;;;;;;37.33;19.60;;;;;;;11.14;69.37;100551.09;5018920;28;20065;-73
2021/04/01 04:16:35;;;;;;;32.70;18.52;;;;;;;11.06;69.64;100545.31;5016601;28;20190;-71
2021/04/01 04:19:01;;;;;;;37.63;19.33;;;;;;;11.08;69.50;100550.56;5018644;28;20052;-71
2021/04/01 04:21:28;;;;;;;37.55;19.98;;;;;;;11.07;69.70;100560.38;5018563;28;20447;-71
2021/04/01 04:23:56;;;;;;;35.58;19.55;;;;;;;11.07;69.07;100563.06;5033985;28;20112;-71
2021/04/01 04:26:23;;;;;;;32.28;19.23;;;;;;;11.02;69.89;100562.47;5018542;28;20108;-73
2021/04/01 04:28:50;;;;;;;32.63;18.60;;;;;;;11.08;70.02;100564.81;5017326;28;20104;-70
2021/04/01 04:31:16;;;;;;;35.28;18.25;;;;;;;11.08;69.84;100566.59;5018047;28;20414;-71
2021/04/01 04:33:42;;;;;;;31.88;17.95;;;;;;;11.02;70.26;100573.16;5001130;28;20432;-71
2021/04/01 04:36:09;;;;;;;38.88;19.25;;;;;;;11.04;70.35;100567.72;5018331;28;20065;-71
2021/04/01 04:38:35;;;;;;;38.85;19.90;;;;;;;10.92;70.46;100558.59;5018369;28;20100;-71
2021/04/01 04:41:02;;;;;;;37.92;21.70;;;;;;;10.96;70.44;100566.34;5018356;28;20069;-71
2021/04/01 04:43:32;;;;;;;36.53;20.17;;;;;;;10.94;70.60;100562.91;5017944;28;20072;-71
2021/04/01 04:45:59;;;;;;;38.65;20.35;;;;;;;10.99;70.53;100560.84;5013265;28;20058;-70
2021/04/01 04:48:26;;;;;;;35.47;18.60;;;;;;;10.92;70.48;100555.91;4998568;28;20474;-74
2021/04/01 04:50:53;;;;;;;39.33;20.55;;;;;;;10.91;71.73;100567.53;4997302;28;20470;-69
2021/04/01 04:53:20;;;;;;;41.08;18.42;;;;;;;10.95;70.96;100567.28;4998761;28;20121;-70
2021/04/01 04:58:24;;;;;;;35.13;18.15;;;;;;;10.92;70.61;100569.28;4998430;28;20042;-70
2021/04/01 05:06:07;;;;;;;35.17;18.95;;;;;;;10.76;71.35;100569.25;5014611;28;20079;-71
2021/04/01 05:08:33;;;;;;;39.42;17.85;;;;;;;10.81;71.31;100585.88;5012454;28;20317;-72
2021/04/01 05:10:59;;;;;;;35.63;19.85;;;;;;;10.77;71.14;100579.84;5013743;28;20713;-71
2021/04/01 05:13:26;;;;;;;39.13;19.60;;;;;;;10.77;71.19;100587.00;5015957;28;20053;-71
2021/04/01 05:15:53;;;;;;;38.17;18.15;;;;;;;10.68;70.91;100585.72;5016020;28;20050;-72
2021/04/01 05:18:25;;;;;;;36.25;17.15;;;;;;;10.68;70.85;100593.72;5014364;28;20054;-72
2021/04/01 05:20:52;;;;;;;39.90;19.50;;;;;;;10.63;70.84;100596.66;5032436;28;20062;-72
2021/04/01 05:25:48;;;;;;;38.92;18.92;;;;;;;10.56;71.71;100589.88;5016345;28;20058;-71
2021/04/01 05:28:21;;;;;;;39.28;18.33;;;;;;;10.55;72.03;100593.50;5019296;28;20049;-72
2021/04/01 05:31:05;;;;;;;39.30;18.67;;;;;;;10.58;71.67;100598.69;4998044;28;20431;-72
2021/04/01 05:33:33;;;;;;;33.28;19.75;;;;;;;10.52;71.68;100596.34;5013693;28;20053;-72
2021/04/01 05:36:01;;;;;;;39.15;20.50;;;;;;;10.48;71.67;100592.13;5017250;28;20057;-71
2021/04/01 05:38:28;;;;;;;33.00;18.92;;;;;;;10.52;71.53;100601.69;5016980;28;20339;-72
2021/04/01 05:40:54;;;;;;;39.28;20.33;;;;;;;10.52;71.36;100604.38;5017406;28;20053;-71
2021/04/01 05:43:22;;;;;;;34.60;17.77;;;;;;;10.55;71.30;100604.19;5015799;28;20458;-71
2021/04/01 05:45:57;;;;;;;38.70;20.73;;;;;;;10.54;71.67;100610.47;5017029;28;20062;-73
2021/04/01 05:48:30;;;;;;;36.92;19.40;;;;;;;10.55;71.48;100606.84;5000481;28;20066;-72
2021/04/01 05:56:48;;;;;;;39.00;20.55;;;;;;;10.62;71.30;100618.91;5016023;28;20056;-72
2021/04/01 06:04:45;;;;;;;41.83;20.98;;;;;;;10.65;71.31;100628.56;5016654;28;20046;-72
2021/04/01 06:07:24;;;;;;;41.20;20.88;;;;;;;10.63;71.35;100628.69;5016588;28;20112;-72
2021/04/01 06:09:56;;;;;;;46.22;22.50;;;;;;;10.68;72.00;100631.94;5015354;28;20383;-71
2021/04/01 06:12:29;;;;;;;49.05;23.48;;;;;;;10.66;71.46;100622.28;5015625;28;20660;-71
2021/04/01 06:15:02;;;;;;;41.47;22.60;;;;;;;10.74;70.94;100633.44;5014645;28;20325;-75
2021/04/01 06:17:32;;;;;;;51.00;21.83;;;;;;;10.79;71.12;100633.19;5015175;28;20859;-73
2021/04/01 06:20:06;;;;;;;45.10;22.65;;;;;;;10.81;70.95;100637.50;5016453;28;20049;-70
2021/04/01 06:22:33;;;;;;;44.33;22.35;;;;;;;10.89;70.86;100628.19;5015955;28;20061;-72
2021/04/01 06:25:00;;;;;;;50.63;22.05;;;;;;;10.96;70.54;100635.78;5014749;28;20049;-72
2021/04/01 06:27:48;;;;;;;51.42;21.98;;;;;;;11.02;70.33;100639.94;5015945;28;20053;-71
2021/04/01 06:33:21;;;;;;;39.72;21.58;;;;;;;11.21;70.04;100645.09;5016028;28;20367;-73
2021/04/01 06:35:57;;;;;;;45.03;22.85;;;;;;;11.27;70.85;100646.56;5012158;28;20057;-72
2021/04/01 06:38:25;;;;;;;44.83;22.98;;;;;;;11.38;70.49;100656.63;5015848;28;20144;-71
2021/04/01 06:40:57;;;;;;;40.33;20.77;;;;;;;11.49;70.68;100658.72;5015764;28;20046;-72
2021/04/01 06:43:24;;;;;;;32.88;19.23;;;;;;;11.58;70.40;100668.91;5014131;28;20061;-71
2021/04/01 06:45:56;;;;;;;35.55;18.63;;;;;;;11.61;70.30;100671.38;5013081;28;20457;-71
2021/04/01 06:48:26;;;;;;;33.88;18.52;;;;;;;11.65;70.09;100672.94;5013186;28;20383;-72
2021/04/01 06:51:10;;;;;;;33.65;16.80;;;;;;;11.70;69.11;100683.34;5014081;28;20100;-72
2021/04/01 06:53:51;;;;;;;31.00;17.30;;;;;;;11.72;68.46;100678.78;5013198;28;20049;-72
2021/04/01 07:02:04;;;;;;;33.67;16.60;;;;;;;11.87;67.59;100673.50;5015695;28;20133;-72
2021/04/01 07:04:34;;;;;;;32.78;15.68;;;;;;;11.88;66.50;100678.75;5015673;28;20050;-72
2021/04/01 07:07:05;;;;;;;30.50;15.43;;;;;;;11.88;66.82;100664.53;5014464;28;20053;-72
2021/04/01 07:12:26;;;;;;;29.83;15.93;;;;;;;11.97;66.18;100672.00;5015444;28;19928;-72
2021/04/01 07:15:03;;;;;;;32.17;16.48;;;;;;;11.97;66.61;100657.78;5015580;28;20060;-72
2021/04/01 07:17:42;;;;;;;30.05;15.88;;;;;;;12.12;65.84;100664.94;5015440;28;20046;-72
2021/04/01 07:23:54;;;;;;;31.77;16.23;;;;;;;12.29;66.26;100663.03;5015592;28;20053;-71
2021/04/01 07:34:57;;;;;;;33.70;16.50;;;;;;;12.51;65.06;100651.91;5015178;28;20100;-71
2021/04/01 07:48:41;;;;;;;37.38;19.77;;;;;;;13.38;60.76;100651.84;5014324;28;20046;-72
2021/04/01 07:51:27;;;;;;;32.30;17.45;;;;;;;13.54;61.04;100648.16;5015393;28;20100;-72
2021/04/01 07:53:55;;;;;;;40.15;18.30;;;;;;;13.68;60.86;100648.13;5015337;28;20077;-71
2021/04/01 07:56:28;;;;;;;35.10;19.67;;;;;;;13.81;59.87;100653.53;5015037;28;20096;-72
2021/04/01 08:04:08;;;;;;;40.65;20.38;;;;;;;14.13;58.72;100653.16;5014781;28;20057;-72
2021/04/01 08:06:36;;;;;;;37.88;20.83;;;;;;;14.31;57.33;100660.06;5015079;28;20050;-72
2021/04/01 08:09:10;;;;;;;52.63;22.10;;;;;;;14.44;57.56;100665.47;5015075;28;20057;-72
2021/04/01 08:11:47;;;;;;;44.40;21.02;;;;;;;14.55;56.97;100670.09;5015232;28;20058;-72
2021/04/01 08:14:18;;;;;;;45.78;23.08;;;;;;;14.60;56.23;100665.25;5015182;28;20061;-72
2021/04/01 08:17:00;;;;;;;45.55;23.77;;;;;;;14.73;55.34;100663.44;5014817;28;20062;-72
2021/04/01 08:19:28;;;;;;;51.17;25.20;;;;;;;14.88;54.99;100666.03;4999231;28;20049;-73
2021/04/01 08:22:18;;;;;;;47.63;23.13;;;;;;;14.93;55.58;100667.41;5015022;28;20081;-73
2021/04/01 08:25:09;;;;;;;45.90;24.50;;;;;;;15.06;55.65;100670.09;5014617;28;20525;-73
2021/04/01 08:28:17;;;;;;;49.85;26.30;;;;;;;15.14;54.76;100665.97;5014720;28;20443;-72
2021/04/01 08:37:00;;;;;;;56.78;28.45;;;;;;;15.32;54.40;100670.00;5015185;28;20404;-71
2021/04/01 08:39:48;;;;;;;67.57;29.77;;;;;;;15.47;53.25;100670.72;5018321;28;20536;-72
2021/04/01 08:42:53;;;;;;;60.83;29.42;;;;;;;15.63;52.80;100674.09;5019074;28;20085;-71
2021/04/01 08:45:45;;;;;;;60.15;28.88;;;;;;;15.59;53.24;100674.31;5018416;28;20460;-72
2021/04/01 08:48:57;;;;;;;61.97;29.23;;;;;;;15.60;53.31;100681.41;5016668;28;20387;-72
2021/04/01 08:51:59;;;;;;;52.58;26.52;;;;;;;15.68;53.51;100682.69;5020023;28;20053;-72
2021/04/01 08:55:05;;;;;;;53.05;26.92;;;;;;;15.73;53.83;100677.81;5021143;28;20124;-72
2021/04/01 08:57:57;;;;;;;57.05;27.25;;;;;;;15.81;51.92;100688.88;5008309;28;20046;-72
2021/04/01 09:00:27;;;;;;;55.03;25.77;;;;;;;15.86;52.22;100684.00;5014821;28;20493;-72
2021/04/01 09:02:55;;;;;;;51.08;26.20;;;;;;;15.92;53.03;100684.53;5017590;28;20056;-72
2021/04/01 09:05:22;;;;;;;50.65;25.52;;;;;;;16.02;53.52;100681.03;5017614;28;20065;-72
2021/04/01 09:07:54;;;;;;;48.15;24.05;;;;;;;15.97;54.00;100677.84;5017735;28;20065;-72
2021/04/01 09:10:29;;;;;;;51.83;25.77;;;;;;;16.05;53.62;100679.94;5017766;28;20057;-72
2021/04/01 09:13:07;;;;;;;67.60;25.65;;;;;;;16.19;52.00;100675.34;5017593;28;20060;-73
2021/04/01 09:18:37;;;;;;;55.60;25.00;;;;;;;16.41;49.67;100680.78;5016500;28;20050;-71
2021/04/01 09:21:05;;;;;;;52.60;25.52;;;;;;;16.49;50.38;100676.63;5017379;28;20386;-72
2021/04/01 09:23:55;;;;;;;50.13;24.42;;;;;;;16.59;51.16;100683.03;5033060;28;20081;-72
2021/04/01 09:26:25;;;;;;;53.40;24.80;;;;;;;16.68;52.04;100674.22;5012738;28;20073;-73
2021/04/01 09:29:04;;;;;;;51.30;26.25;;;;;;;16.82;50.04;100677.66;5012940;28;20076;-72
2021/04/01 09:31:43;;;;;;;52.22;24.92;;;;;;;16.92;50.04;100684.03;4996605;28;20328;-73
2021/04/01 09:34:10;;;;;;;48.88;24.98;;;;;;;16.98;49.93;100680.00;5011909;28;20057;-71
2021/04/01 09:36:40;;;;;;;57.90;24.45;;;;;;;17.06;49.86;100682.13;5017067;28;20100;-75
2021/04/01 09:39:28;;;;;;;58.53;27.15;;;;;;;17.19;48.03;100673.88;5016995;28;20049;-75
2021/04/01 09:42:03;;;;;;;62.42;28.13;;;;;;;17.34;45.76;100677.19;5017015;28;20060;-74
2021/04/01 09:44:29;;;;;;;66.25;28.70;;;;;;;17.51;46.41;100670.41;5015957;28;20197;-73
2021/04/01 09:47:09;;;;;;;54.80;25.90;;;;;;;17.67;44.61;100686.19;5012732;28;20057;-74
2021/04/01 09:49:50;;;;;;;60.00;24.95;;;;;;;17.75;44.44;100680.13;5009196;28;20149;-75
2021/04/01 09:52:25;;;;;;;47.33;23.55;;;;;;;17.90;44.21;100678.00;5015537;28;20069;-75
2021/04/01 09:55:00;;;;;;;47.55;22.42;;;;;;;17.99;44.07;100674.53;5016732;28;20128;-73
2021/04/01 09:57:53;;;;;;;45.35;21.05;;;;;;;18.07;43.35;100678.47;5016332;28;20045;-73
2021/04/01 10:03:22;;;;;;;50.78;22.05;;;;;;;18.32;44.14;100669.94;5016747;28;20054;-73
2021/04/01 10:05:51;;;;;;;59.40;26.85;;;;;;;18.42;43.23;100674.59;5016272;28;20459;-75
2021/04/01 10:08:29;;;;;;;57.50;26.50;;;;;;;18.54;43.92;100681.63;5026841;28;20048;-74
2021/04/01 10:10:59;;;;;;;67.63;28.67;;;;;;;18.62;43.00;100680.13;5016244;28;20060;-74
2021/04/01 10:13:28;;;;;;;61.78;25.35;;;;;;;18.64;43.07;100675.41;5016075;28;20053;-73
2021/04/01 10:15:57;;;;;;;57.42;24.45;;;;;;;18.68;42.55;100680.41;5016252;28;20057;-73
2021/04/01 10:18:36;;;;;;;54.65;26.00;;;;;;;18.73;42.28;100674.59;5016099;28;20045;-74
2021/04/01 10:21:12;;;;;;;42.50;20.20;;;;;;;18.85;42.79;100665.41;5013912;28;20050;-74
2021/04/01 10:23:43;;;;;;;46.55;20.75;;;;;;;18.95;42.56;100667.31;5015893;28;20058;-73
2021/04/01 10:26:11;;;;;;;43.00;17.83;;;;;;;18.94;42.65;100671.88;5014301;28;20057;-73
2021/04/01 10:28:43;;;;;;;49.17;21.08;;;;;;;19.02;42.62;100665.81;5013901;28;20056;-72
2021/04/01 10:31:19;;;;;;;44.00;20.42;;;;;;;19.17;43.33;100671.69;5014523;28;20073;-73
2021/04/01 10:34:03;;;;;;;53.15;24.05;;;;;;;19.31;42.32;100672.28;5015692;28;20060;-73
2021/04/01 10:36:29;;;;;;;52.60;22.83;;;;;;;19.43;41.86;100667.66;5015907;28;20062;-74
2021/04/01 10:39:10;;;;;;;50.85;21.92;;;;;;;19.49;42.43;100678.75;5016264;28;20408;-74
2021/04/01 10:41:56;;;;;;;57.60;24.25;;;;;;;19.47;41.82;100678.03;5016541;28;20053;-74
2021/04/01 10:44:23;;;;;;;52.53;22.77;;;;;;;19.41;42.05;100676.72;5014894;28;20061;-72
2021/04/01 10:46:52;;;;;;;51.45;22.20;;;;;;;19.47;41.71;100678.03;5014967;28;20053;-72
2021/04/01 10:49:24;;;;;;;43.47;20.80;;;;;;;19.57;41.82;100677.19;5016446;28;20049;-72
2021/04/01 10:51:59;;;;;;;56.83;22.08;;;;;;;19.67;41.80;100668.09;5015801;28;20112;-73
2021/04/01 10:54:38;;;;;;;47.83;21.02;;;;;;;19.88;42.43;100669.81;5014950;28;20057;-73
2021/04/01 10:57:11;;;;;;;42.25;19.48;;;;;;;19.92;41.12;100665.84;5015631;28;20056;-73
2021/04/01 10:59:43;;;;;;;48.10;19.23;;;;;;;19.93;41.87;100658.53;5015431;28;20088;-73
2021/04/01 11:02:18;;;;;;;42.10;15.77;;;;;;;20.07;41.75;100662.72;5015762;28;20050;-72
2021/04/01 11:05:02;;;;;;;39.83;15.57;;;;;;;20.20;40.23;100652.44;5030725;28;20112;-73
2021/04/01 11:07:42;;;;;;;37.72;16.00;;;;;;;20.34;40.93;100645.72;5015211;28;20370;-72
2021/04/01 11:10:11;;;;;;;35.53;15.73;;;;;;;20.41;40.48;100643.25;5015207;28;20046;-72
2021/04/01 11:12:39;;;;;;;38.95;16.83;;;;;;;20.47;39.69;100647.22;5015719;28;20045;-70
2021/04/01 11:15:07;;;;;;;40.38;17.48;;;;;;;20.44;39.84;100651.09;5015418;28;20103;-73
2021/04/01 11:17:39;;;;;;;46.38;19.08;;;;;;;20.51;39.90;100647.78;5016707;28;20045;-72
2021/04/01 11:20:06;;;;;;;36.92;16.65;;;;;;;20.37;39.42;100620.16;5015821;28;20054;-73
2021/04/01 11:22:33;;;;;;;37.05;16.95;;;;;;;20.56;38.66;100640.06;5013113;28;20064;-73
2021/04/01 11:25:13;;;;;;;34.28;15.35;;;;;;;20.65;37.77;100650.06;4996622;28;20075;-72
2021/04/01 11:27:52;;;;;;;38.03;17.65;;;;;;;20.79;37.96;100647.84;5014275;28;20049;-72
2021/04/01 11:30:18;;;;;;;34.53;16.00;;;;;;;20.86;37.78;100649.00;5015461;28;20054;-74
2021/04/01 11:32:54;;;;;;;33.58;15.90;;;;;;;20.84;38.04;100643.72;5014896;28;20054;-74
2021/04/01 11:35:22;;;;;;;36.60;17.90;;;;;;;20.94;38.44;100649.13;5014994;28;20088;-72
2021/04/01 11:37:54;;;;;;;40.28;18.58;;;;;;;21.06;38.78;100648.91;5015151;28;20053;-74
2021/04/01 11:40:20;;;;;;;42.38;18.08;;;;;;;21.00;39.75;100643.09;4998441;28;20137;-73
2021/04/01 11:42:55;;;;;;;37.67;16.77;;;;;;;21.23;39.48;100642.66;5013927;28;20056;-73
2021/04/01 11:45:36;;;;;;;41.20;17.42;;;;;;;21.34;38.98;100649.75;5015531;28;20054;-73
2021/04/01 11:48:05;;;;;;;46.03;17.05;;;;;;;21.44;38.53;100644.25;5014053;28;20046;-74
2021/04/01 11:50:32;;;;;;;41.17;16.60;;;;;;;21.44;38.21;100644.25;5014963;28;20050;-73
2021/04/01 11:53:00;;;;;;;35.55;15.43;;;;;;;21.34;39.17;100646.19;5013827;28;20502;-73
2021/04/01 11:55:28;;;;;;;38.85;16.52;;;;;;;21.57;39.13;100644.72;5015256;28;20479;-73
2021/04/01 11:57:56;;;;;;;39.63;15.18;;;;;;;21.64;39.15;100634.13;5014993;28;20045;-73
2021/04/01 12:00:33;;;;;;;38.53;14.85;;;;;;;21.80;39.37;100630.72;5015188;28;20108;-73
2021/04/01 12:03:06;;;;;;;41.83;15.32;;;;;;;21.83;38.64;100637.69;5015495;28;20116;-73
2021/04/01 12:05:43;;;;;;;41.60;14.88;;;;;;;22.03;38.57;100637.53;5030480;28;20119;-73
2021/04/01 12:08:10;;;;;;;38.58;13.80;;;;;;;22.04;38.12;100626.50;5015235;28;20049;-74
2021/04/01 12:10:37;;;;;;;34.80;14.13;;;;;;;21.87;38.52;100625.53;5014607;28;20054;-74
2021/04/01 12:13:04;;;;;;;42.35;14.95;;;;;;;22.04;38.86;100631.06;5015508;28;20440;-70
2021/04/01 12:15:38;;;;;;;36.30;14.25;;;;;;;22.03;38.20;100630.25;5018141;28;20100;-74
2021/04/01 12:18:06;;;;;;;39.30;15.05;;;;;;;22.11;38.46;100633.00;5017047;28;20065;-74
2021/04/01 12:20:35;;;;;;;46.65;16.08;;;;;;;22.09;38.70;100631.47;5018656;28;20062;-74
2021/04/01 12:23:20;;;;;;;42.70;15.73;;;;;;;22.10;38.20;100625.88;5018416;28;20045;-74
2021/04/01 12:25:47;;;;;;;38.58;16.85;;;;;;;21.96;38.78;100623.72;5018564;28;20054;-74
2021/04/01 12:28:19;;;;;;;41.45;16.73;;;;;;;22.07;38.91;100631.59;5017935;28;20049;-75
2021/04/01 12:30:48;;;;;;;44.17;18.42;;;;;;;22.01;38.52;100634.13;5018153;28;20428;-74
2021/04/01 12:33:20;;;;;;;48.58;19.27;;;;;;;22.07;38.75;100638.94;5018370;28;20061;-75
2021/04/01 12:35:51;;;;;;;49.92;20.65;;;;;;;22.20;38.00;100633.06;5018690;28;20050;-75
2021/04/01 12:38:38;;;;;;;47.22;19.70;;;;;;;22.27;37.81;100628.69;5017264;28;20046;-75
2021/04/01 12:41:21;;;;;;;49.25;21.13;;;;;;;22.02;38.03;100630.38;5016330;28;20104;-74
2021/04/01 12:43:48;;;;;;;60.60;22.08;;;;;;;22.06;38.27;100631.78;5017195;28;20057;-72
2021/04/01 12:46:15;;;;;;;49.85;20.27;;;;;;;21.85;38.79;100630.25;5018200;28;20054;-75
2021/04/01 12:48:52;;;;;;;56.45;22.52;;;;;;;21.96;38.89;100626.44;5018216;28;20436;-75
2021/04/01 12:51:20;;;;;;;59.58;23.75;;;;;;;22.06;38.50;100632.63;5018008;28;20057;-73
2021/04/01 12:54:05;;;;;;;60.83;25.33;;;;;;;21.96;39.09;100605.53;5017579;28;20042;-72